sensor_id;sensor_type;location;lat;lon;timestamp;P1;durP1;ratioP1;P2;durP2;ratioP2
2840;SDS011;53423;49.224;12.074;2023-04-15T00:01:11;7.37;;;6.83;;
2840;SDS011;53423;49.224;12.074;2023-04-15T00:03:44;7.93;;;7.23;;
2840;SDS011;53423;49.224;12.074;2023-04-15T00:06:12;7.80;;;7.20;;
2840;SDS011;53423;49.224;12.074;2023-04-15T00:08:40;7.30;;;6.67;;
2840;SDS011;53423;49.224;12.074;2023-04-15T00:11:10;7.43;;;6.80;;
2840;SDS011;53423;49.224;12.074;2023-04-15T00:13:38;7.63;;;7.03;;
2840;SDS011;53423;49.224;12.074;2023-04-15T00:16:06;7.30;;;6.70;;
2840;SDS011;53423;49.224;12.074;2023-04-15T00:18:35;7.73;;;7.13;;
2840;SDS011;53423;49.224;12.074;2023-04-15T00:21:03;7.40;;;6.80;;
2840;SDS011;53423;49.224;12.074;2023-04-15T00:23:32;7.40;;;6.80;;
2840;SDS011;53423;49.224;12.074;2023-04-15T00:26:01;7.33;;;6.77;;
2840;SDS011;53423;49.224;12.074;2023-04-15T00:28:31;6.93;;;6.43;;
2840;SDS011;53423;49.224;12.074;2023-04-15T00:30:58;6.73;;;6.13;;
2840;SDS011;53423;49.224;12.074;2023-04-15T00:33:26;6.97;;;6.47;;
2840;SDS011;53423;49.224;12.074;2023-04-15T00:35:54;6.47;;;6.07;;
2840;SDS011;53423;49.224;12.074;2023-04-15T00:38:22;6.57;;;5.97;;
2840;SDS011;53423;49.224;12.074;2023-04-15T00:40:50;6.67;;;6.17;;
2840;SDS011;53423;49.224;12.074;2023-04-15T00:43:19;6.70;;;6.10;;
2840;SDS011;53423;49.224;12.074;2023-04-15T00:45:48;6.47;;;5.97;;
2840;SDS011;53423;49.224;12.074;2023-04-15T00:48:19;5.67;;;5.27;;
2840;SDS011;53423;49.224;12.074;2023-04-15T00:50:47;6.00;;;5.50;;
2840;SDS011;53423;49.224;12.074;2023-04-15T00:53:15;6.50;;;5.90;;
2840;SDS011;53423;49.224;12.074;2023-04-15T00:55:43;5.53;;;5.10;;
2840;SDS011;53423;49.224;12.074;2023-04-15T00:58:11;6.40;;;5.93;;
2840;SDS011;53423;49.224;12.074;2023-04-15T01:00:42;6.77;;;6.17;;
2840;SDS011;53423;49.224;12.074;2023-04-15T01:03:11;6.17;;;5.63;;
2840;SDS011;53423;49.224;12.074;2023-04-15T01:05:40;6.50;;;5.90;;
2840;SDS011;53423;49.224;12.074;2023-04-15T01:08:08;6.30;;;5.80;;
2840;SDS011;53423;49.224;12.074;2023-04-15T01:10:36;6.03;;;5.57;;
2840;SDS011;53423;49.224;12.074;2023-04-15T01:13:05;6.70;;;6.10;;
2840;SDS011;53423;49.224;12.074;2023-04-15T01:15:33;6.50;;;6.00;;
2840;SDS011;53423;49.224;12.074;2023-04-15T01:18:02;6.37;;;5.73;;
2840;SDS011;53423;49.224;12.074;2023-04-15T01:20:32;6.37;;;5.87;;
2840;SDS011;53423;49.224;12.074;2023-04-15T01:23:01;7.27;;;6.63;;
2840;SDS011;53423;49.224;12.074;2023-04-15T01:25:31;6.90;;;6.40;;
2840;SDS011;53423;49.224;12.074;2023-04-15T01:28:00;6.97;;;6.40;;
2840;SDS011;53423;49.224;12.074;2023-04-15T01:30:28;6.27;;;5.87;;
2840;SDS011;53423;49.224;12.074;2023-04-15T01:33:00;7.40;;;6.57;;
2840;SDS011;53423;49.224;12.074;2023-04-15T01:35:28;6.37;;;5.87;;
2840;SDS011;53423;49.224;12.074;2023-04-15T01:37:57;6.50;;;6.00;;
2840;SDS011;53423;49.224;12.074;2023-04-15T01:40:32;6.00;;;5.50;;
2840;SDS011;53423;49.224;12.074;2023-04-15T01:43:00;6.80;;;6.13;;
2840;SDS011;53423;49.224;12.074;2023-04-15T01:45:29;6.47;;;5.83;;
2840;SDS011;53423;49.224;12.074;2023-04-15T01:47:57;6.50;;;5.90;;
2840;SDS011;53423;49.224;12.074;2023-04-15T01:50:25;6.30;;;5.80;;
2840;SDS011;53423;49.224;12.074;2023-04-15T01:52:53;6.30;;;5.80;;
2840;SDS011;53423;49.224;12.074;2023-04-15T01:55:21;6.33;;;5.83;;
2840;SDS011;53423;49.224;12.074;2023-04-15T01:57:50;6.87;;;6.27;;
2840;SDS011;53423;49.224;12.074;2023-04-15T02:00:18;6.00;;;5.53;;
2840;SDS011;53423;49.224;12.074;2023-04-15T02:02:47;6.50;;;6.00;;
2840;SDS011;53423;49.224;12.074;2023-04-15T02:05:16;6.43;;;5.93;;
2840;SDS011;53423;49.224;12.074;2023-04-15T02:07:43;6.60;;;6.00;;
2840;SDS011;53423;49.224;12.074;2023-04-15T02:10:11;6.40;;;5.90;;
2840;SDS011;53423;49.224;12.074;2023-04-15T02:12:40;6.70;;;6.10;;
2840;SDS011;53423;49.224;12.074;2023-04-15T02:15:09;6.57;;;5.97;;
2840;SDS011;53423;49.224;12.074;2023-04-15T02:17:37;6.20;;;5.70;;
2840;SDS011;53423;49.224;12.074;2023-04-15T02:20:07;6.23;;;5.73;;
2840;SDS011;53423;49.224;12.074;2023-04-15T02:22:35;6.03;;;5.57;;
2840;SDS011;53423;49.224;12.074;2023-04-15T02:25:04;6.03;;;5.53;;
2840;SDS011;53423;49.224;12.074;2023-04-15T02:27:32;6.13;;;5.30;;
2840;SDS011;53423;49.224;12.074;2023-04-15T02:30:01;6.67;;;5.83;;
2840;SDS011;53423;49.224;12.074;2023-04-15T02:32:31;6.63;;;6.13;;
2840;SDS011;53423;49.224;12.074;2023-04-15T02:35:01;6.70;;;6.20;;
2840;SDS011;53423;49.224;12.074;2023-04-15T02:37:29;6.40;;;5.90;;
2840;SDS011;53423;49.224;12.074;2023-04-15T02:39:58;6.20;;;5.80;;
2840;SDS011;53423;49.224;12.074;2023-04-15T02:42:26;6.30;;;5.80;;
2840;SDS011;53423;49.224;12.074;2023-04-15T02:44:55;6.93;;;6.17;;
2840;SDS011;53423;49.224;12.074;2023-04-15T02:47:23;6.47;;;5.97;;
2840;SDS011;53423;49.224;12.074;2023-04-15T02:49:53;6.77;;;6.27;;
2840;SDS011;53423;49.224;12.074;2023-04-15T02:52:20;6.97;;;6.37;;
2840;SDS011;53423;49.224;12.074;2023-04-15T02:54:49;7.10;;;6.40;;
2840;SDS011;53423;49.224;12.074;2023-04-15T02:57:17;7.20;;;6.50;;
2840;SDS011;53423;49.224;12.074;2023-04-15T02:59:45;6.93;;;6.33;;
2840;SDS011;53423;49.224;12.074;2023-04-15T03:02:13;6.43;;;5.93;;
2840;SDS011;53423;49.224;12.074;2023-04-15T03:04:41;6.90;;;6.40;;
2840;SDS011;53423;49.224;12.074;2023-04-15T03:07:10;7.60;;;7.00;;
2840;SDS011;53423;49.224;12.074;2023-04-15T03:09:38;6.97;;;6.33;;
2840;SDS011;53423;49.224;12.074;2023-04-15T03:12:06;6.93;;;6.43;;
2840;SDS011;53423;49.224;12.074;2023-04-15T03:14:34;6.70;;;6.20;;
2840;SDS011;53423;49.224;12.074;2023-04-15T03:17:02;5.90;;;5.40;;
2840;SDS011;53423;49.224;12.074;2023-04-15T03:19:30;6.90;;;6.33;;
2840;SDS011;53423;49.224;12.074;2023-04-15T03:21:57;6.93;;;6.33;;
2840;SDS011;53423;49.224;12.074;2023-04-15T03:24:27;7.20;;;6.60;;
2840;SDS011;53423;49.224;12.074;2023-04-15T03:26:55;7.60;;;6.97;;
2840;SDS011;53423;49.224;12.074;2023-04-15T03:29:24;7.40;;;6.80;;
2840;SDS011;53423;49.224;12.074;2023-04-15T03:31:52;7.37;;;6.77;;
2840;SDS011;53423;49.224;12.074;2023-04-15T03:34:20;7.27;;;6.67;;
2840;SDS011;53423;49.224;12.074;2023-04-15T03:36:47;7.60;;;6.90;;
2840;SDS011;53423;49.224;12.074;2023-04-15T03:39:16;7.43;;;6.73;;
2840;SDS011;53423;49.224;12.074;2023-04-15T03:41:45;7.60;;;7.00;;
2840;SDS011;53423;49.224;12.074;2023-04-15T03:44:13;8.07;;;7.37;;
2840;SDS011;53423;49.224;12.074;2023-04-15T03:46:41;7.57;;;6.97;;
2840;SDS011;53423;49.224;12.074;2023-04-15T03:49:09;7.57;;;6.87;;
2840;SDS011;53423;49.224;12.074;2023-04-15T03:51:37;7.77;;;7.17;;
2840;SDS011;53423;49.224;12.074;2023-04-15T03:54:05;7.57;;;6.90;;
2840;SDS011;53423;49.224;12.074;2023-04-15T03:56:33;7.53;;;6.93;;
2840;SDS011;53423;49.224;12.074;2023-04-15T03:59:02;7.60;;;7.00;;
2840;SDS011;53423;49.224;12.074;2023-04-15T04:01:30;8.83;;;8.03;;
2840;SDS011;53423;49.224;12.074;2023-04-15T04:03:58;8.17;;;7.37;;
2840;SDS011;53423;49.224;12.074;2023-04-15T04:06:26;7.70;;;7.10;;
2840;SDS011;53423;49.224;12.074;2023-04-15T04:08:54;8.10;;;7.40;;
2840;SDS011;53423;49.224;12.074;2023-04-15T04:11:22;8.30;;;7.60;;
2840;SDS011;53423;49.224;12.074;2023-04-15T04:13:49;8.37;;;7.53;;
2840;SDS011;53423;49.224;12.074;2023-04-15T04:16:19;7.90;;;7.20;;
2840;SDS011;53423;49.224;12.074;2023-04-15T04:18:47;8.30;;;7.60;;
2840;SDS011;53423;49.224;12.074;2023-04-15T04:21:15;7.57;;;6.93;;
2840;SDS011;53423;49.224;12.074;2023-04-15T04:23:43;8.70;;;7.70;;
2840;SDS011;53423;49.224;12.074;2023-04-15T04:26:11;7.70;;;7.00;;
2840;SDS011;53423;49.224;12.074;2023-04-15T04:28:38;7.53;;;6.93;;
2840;SDS011;53423;49.224;12.074;2023-04-15T04:31:07;7.33;;;6.63;;
2840;SDS011;53423;49.224;12.074;2023-04-15T04:33:36;7.33;;;6.63;;
2840;SDS011;53423;49.224;12.074;2023-04-15T04:36:04;7.60;;;6.97;;
2840;SDS011;53423;49.224;12.074;2023-04-15T04:38:32;6.90;;;6.30;;
2840;SDS011;53423;49.224;12.074;2023-04-15T04:41:00;8.37;;;7.67;;
2840;SDS011;53423;49.224;12.074;2023-04-15T04:43:28;7.93;;;7.23;;
2840;SDS011;53423;49.224;12.074;2023-04-15T04:45:56;7.43;;;6.83;;
2840;SDS011;53423;49.224;12.074;2023-04-15T04:48:24;7.90;;;7.20;;
2840;SDS011;53423;49.224;12.074;2023-04-15T04:50:54;8.37;;;7.57;;
2840;SDS011;53423;49.224;12.074;2023-04-15T04:53:21;8.23;;;7.53;;
2840;SDS011;53423;49.224;12.074;2023-04-15T04:55:49;8.03;;;7.37;;
2840;SDS011;53423;49.224;12.074;2023-04-15T04:58:17;8.57;;;7.87;;
2840;SDS011;53423;49.224;12.074;2023-04-15T05:00:45;7.57;;;6.87;;
2840;SDS011;53423;49.224;12.074;2023-04-15T05:03:13;8.37;;;7.67;;
2840;SDS011;53423;49.224;12.074;2023-04-15T05:05:42;8.40;;;7.60;;
2840;SDS011;53423;49.224;12.074;2023-04-15T05:08:11;8.87;;;7.97;;
2840;SDS011;53423;49.224;12.074;2023-04-15T05:10:39;7.80;;;7.10;;
2840;SDS011;53423;49.224;12.074;2023-04-15T05:13:07;9.43;;;8.53;;
2840;SDS011;53423;49.224;12.074;2023-04-15T05:15:35;9.07;;;8.27;;
2840;SDS011;53423;49.224;12.074;2023-04-15T05:18:05;7.67;;;6.97;;
2840;SDS011;53423;49.224;12.074;2023-04-15T05:20:33;7.93;;;7.23;;
2840;SDS011;53423;49.224;12.074;2023-04-15T05:23:01;8.70;;;8.00;;
2840;SDS011;53423;49.224;12.074;2023-04-15T05:25:30;8.23;;;7.37;;
2840;SDS011;53423;49.224;12.074;2023-04-15T05:27:58;8.47;;;7.77;;
2840;SDS011;53423;49.224;12.074;2023-04-15T05:30:26;8.97;;;8.17;;
2840;SDS011;53423;49.224;12.074;2023-04-15T05:32:54;8.03;;;7.43;;
2840;SDS011;53423;49.224;12.074;2023-04-15T05:35:22;9.00;;;8.20;;
2840;SDS011;53423;49.224;12.074;2023-04-15T05:37:50;9.47;;;8.60;;
2840;SDS011;53423;49.224;12.074;2023-04-15T05:40:18;8.03;;;7.33;;
2840;SDS011;53423;49.224;12.074;2023-04-15T05:42:47;8.47;;;7.77;;
2840;SDS011;53423;49.224;12.074;2023-04-15T05:45:15;9.67;;;8.77;;
2840;SDS011;53423;49.224;12.074;2023-04-15T05:47:44;10.47;;;9.57;;
2840;SDS011;53423;49.224;12.074;2023-04-15T05:50:12;6.30;;;5.80;;
2840;SDS011;53423;49.224;12.074;2023-04-15T05:52:40;6.40;;;5.90;;
2840;SDS011;53423;49.224;12.074;2023-04-15T05:55:08;5.43;;;5.00;;
2840;SDS011;53423;49.224;12.074;2023-04-15T05:57:36;5.37;;;4.97;;
2840;SDS011;53423;49.224;12.074;2023-04-15T06:00:06;5.23;;;4.83;;
2840;SDS011;53423;49.224;12.074;2023-04-15T06:02:35;5.37;;;4.97;;
2840;SDS011;53423;49.224;12.074;2023-04-15T06:05:03;5.23;;;4.83;;
2840;SDS011;53423;49.224;12.074;2023-04-15T06:07:35;5.00;;;4.60;;
2840;SDS011;53423;49.224;12.074;2023-04-15T06:10:03;4.40;;;4.10;;
2840;SDS011;53423;49.224;12.074;2023-04-15T06:12:32;5.37;;;4.87;;
2840;SDS011;53423;49.224;12.074;2023-04-15T06:15:00;5.20;;;4.70;;
2840;SDS011;53423;49.224;12.074;2023-04-15T06:17:30;5.17;;;4.77;;
2840;SDS011;53423;49.224;12.074;2023-04-15T06:19:58;4.73;;;4.33;;
2840;SDS011;53423;49.224;12.074;2023-04-15T06:22:26;4.87;;;4.47;;
2840;SDS011;53423;49.224;12.074;2023-04-15T06:24:54;4.93;;;4.50;;
2840;SDS011;53423;49.224;12.074;2023-04-15T06:27:22;4.73;;;4.33;;
2840;SDS011;53423;49.224;12.074;2023-04-15T06:29:50;4.77;;;4.37;;
2840;SDS011;53423;49.224;12.074;2023-04-15T06:32:17;4.30;;;4.00;;
2840;SDS011;53423;49.224;12.074;2023-04-15T06:34:47;4.70;;;4.30;;
2840;SDS011;53423;49.224;12.074;2023-04-15T06:37:15;4.50;;;4.10;;
2840;SDS011;53423;49.224;12.074;2023-04-15T06:39:43;4.03;;;3.73;;
2840;SDS011;53423;49.224;12.074;2023-04-15T06:42:10;4.43;;;4.13;;
2840;SDS011;53423;49.224;12.074;2023-04-15T06:44:39;4.10;;;3.80;;
2840;SDS011;53423;49.224;12.074;2023-04-15T06:47:07;3.97;;;3.70;;
2840;SDS011;53423;49.224;12.074;2023-04-15T06:49:35;4.13;;;3.73;;
2840;SDS011;53423;49.224;12.074;2023-04-15T06:52:04;3.83;;;3.53;;
2840;SDS011;53423;49.224;12.074;2023-04-15T06:54:32;3.53;;;3.33;;
2840;SDS011;53423;49.224;12.074;2023-04-15T06:57:00;3.93;;;3.63;;
2840;SDS011;53423;49.224;12.074;2023-04-15T06:59:28;3.90;;;3.60;;
2840;SDS011;53423;49.224;12.074;2023-04-15T07:01:56;3.77;;;3.50;;
2840;SDS011;53423;49.224;12.074;2023-04-15T07:04:23;3.70;;;3.40;;
2840;SDS011;53423;49.224;12.074;2023-04-15T07:06:53;3.90;;;3.60;;
2840;SDS011;53423;49.224;12.074;2023-04-15T07:09:22;4.20;;;3.63;;
2840;SDS011;53423;49.224;12.074;2023-04-15T07:11:50;3.70;;;3.40;;
2840;SDS011;53423;49.224;12.074;2023-04-15T07:14:18;3.90;;;3.60;;
2840;SDS011;53423;49.224;12.074;2023-04-15T07:16:46;3.60;;;3.30;;
2840;SDS011;53423;49.224;12.074;2023-04-15T07:19:14;3.30;;;3.10;;
2840;SDS011;53423;49.224;12.074;2023-04-15T07:21:42;3.60;;;3.40;;
2840;SDS011;53423;49.224;12.074;2023-04-15T07:24:10;4.30;;;3.90;;
2840;SDS011;53423;49.224;12.074;2023-04-15T07:26:43;3.80;;;3.50;;
2840;SDS011;53423;49.224;12.074;2023-04-15T07:29:11;3.77;;;3.47;;
2840;SDS011;53423;49.224;12.074;2023-04-15T07:31:39;3.50;;;3.30;;
2840;SDS011;53423;49.224;12.074;2023-04-15T07:34:07;3.53;;;3.30;;
2840;SDS011;53423;49.224;12.074;2023-04-15T07:36:35;3.33;;;3.10;;
2840;SDS011;53423;49.224;12.074;2023-04-15T07:39:03;3.10;;;2.90;;
2840;SDS011;53423;49.224;12.074;2023-04-15T07:41:31;3.37;;;3.07;;
2840;SDS011;53423;49.224;12.074;2023-04-15T07:44:03;3.70;;;3.20;;
2840;SDS011;53423;49.224;12.074;2023-04-15T07:46:31;3.20;;;3.00;;
2840;SDS011;53423;49.224;12.074;2023-04-15T07:48:59;3.20;;;3.00;;
2840;SDS011;53423;49.224;12.074;2023-04-15T07:51:27;4.30;;;3.27;;
2840;SDS011;53423;49.224;12.074;2023-04-15T07:53:56;3.30;;;3.10;;
2840;SDS011;53423;49.224;12.074;2023-04-15T07:56:24;3.10;;;2.77;;
2840;SDS011;53423;49.224;12.074;2023-04-15T07:58:51;3.63;;;3.33;;
2840;SDS011;53423;49.224;12.074;2023-04-15T08:01:21;2.97;;;2.77;;
2840;SDS011;53423;49.224;12.074;2023-04-15T08:03:49;2.77;;;2.57;;
2840;SDS011;53423;49.224;12.074;2023-04-15T08:06:18;2.93;;;2.73;;
2840;SDS011;53423;49.224;12.074;2023-04-15T08:08:46;2.73;;;2.53;;
2840;SDS011;53423;49.224;12.074;2023-04-15T08:11:13;2.90;;;2.63;;
2840;SDS011;53423;49.224;12.074;2023-04-15T08:13:42;2.60;;;2.40;;
2840;SDS011;53423;49.224;12.074;2023-04-15T08:16:15;2.50;;;2.30;;
2840;SDS011;53423;49.224;12.074;2023-04-15T08:18:47;2.70;;;2.50;;
2840;SDS011;53423;49.224;12.074;2023-04-15T08:21:15;2.30;;;2.20;;
2840;SDS011;53423;49.224;12.074;2023-04-15T08:23:45;2.30;;;2.20;;
2840;SDS011;53423;49.224;12.074;2023-04-15T08:26:14;2.20;;;2.10;;
2840;SDS011;53423;49.224;12.074;2023-04-15T08:28:43;2.80;;;2.60;;
2840;SDS011;53423;49.224;12.074;2023-04-15T08:31:12;2.40;;;2.20;;
2840;SDS011;53423;49.224;12.074;2023-04-15T08:33:41;2.43;;;2.30;;
2840;SDS011;53423;49.224;12.074;2023-04-15T08:36:10;2.63;;;2.43;;
2840;SDS011;53423;49.224;12.074;2023-04-15T08:38:39;2.80;;;2.60;;
2840;SDS011;53423;49.224;12.074;2023-04-15T08:41:17;2.73;;;2.53;;
2840;SDS011;53423;49.224;12.074;2023-04-15T08:43:51;2.20;;;2.10;;
2840;SDS011;53423;49.224;12.074;2023-04-15T08:46:20;2.70;;;2.50;;
2840;SDS011;53423;49.224;12.074;2023-04-15T08:48:49;2.60;;;2.40;;
2840;SDS011;53423;49.224;12.074;2023-04-15T08:51:20;2.67;;;2.53;;
2840;SDS011;53423;49.224;12.074;2023-04-15T08:53:50;2.57;;;2.37;;
2840;SDS011;53423;49.224;12.074;2023-04-15T08:56:18;2.87;;;2.67;;
2840;SDS011;53423;49.224;12.074;2023-04-15T08:58:51;2.87;;;2.67;;
2840;SDS011;53423;49.224;12.074;2023-04-15T09:01:20;2.20;;;2.10;;
2840;SDS011;53423;49.224;12.074;2023-04-15T09:03:51;2.60;;;2.40;;
2840;SDS011;53423;49.224;12.074;2023-04-15T09:06:21;2.77;;;2.57;;
2840;SDS011;53423;49.224;12.074;2023-04-15T09:08:49;2.13;;;2.03;;
2840;SDS011;53423;49.224;12.074;2023-04-15T09:11:18;2.20;;;2.10;;
2840;SDS011;53423;49.224;12.074;2023-04-15T09:13:48;2.10;;;2.00;;
2840;SDS011;53423;49.224;12.074;2023-04-15T09:16:15;2.50;;;2.30;;
2840;SDS011;53423;49.224;12.074;2023-04-15T09:18:44;2.27;;;2.10;;
2840;SDS011;53423;49.224;12.074;2023-04-15T09:21:12;2.60;;;2.40;;
2840;SDS011;53423;49.224;12.074;2023-04-15T09:23:53;2.13;;;2.03;;
2840;SDS011;53423;49.224;12.074;2023-04-15T09:26:30;2.20;;;2.10;;
2840;SDS011;53423;49.224;12.074;2023-04-15T09:29:05;2.60;;;2.40;;
2840;SDS011;53423;49.224;12.074;2023-04-15T09:31:38;2.00;;;1.90;;
2840;SDS011;53423;49.224;12.074;2023-04-15T09:34:09;1.83;;;1.73;;
2840;SDS011;53423;49.224;12.074;2023-04-15T09:36:40;1.87;;;1.77;;
2840;SDS011;53423;49.224;12.074;2023-04-15T09:39:20;1.93;;;1.83;;
2840;SDS011;53423;49.224;12.074;2023-04-15T09:42:02;1.80;;;1.70;;
2840;SDS011;53423;49.224;12.074;2023-04-15T09:44:32;1.80;;;1.70;;
2840;SDS011;53423;49.224;12.074;2023-04-15T09:47:02;2.20;;;2.07;;
2840;SDS011;53423;49.224;12.074;2023-04-15T09:49:30;1.77;;;1.67;;
2840;SDS011;53423;49.224;12.074;2023-04-15T09:51:59;1.33;;;1.27;;
2840;SDS011;53423;49.224;12.074;2023-04-15T09:54:33;1.47;;;1.37;;
2840;SDS011;53423;49.224;12.074;2023-04-15T09:57:06;1.40;;;1.30;;
2840;SDS011;53423;49.224;12.074;2023-04-15T09:59:35;1.70;;;1.60;;
2840;SDS011;53423;49.224;12.074;2023-04-15T10:02:03;1.37;;;1.27;;
2840;SDS011;53423;49.224;12.074;2023-04-15T10:04:34;1.90;;;1.60;;
2840;SDS011;53423;49.224;12.074;2023-04-15T10:07:03;1.87;;;1.77;;
2840;SDS011;53423;49.224;12.074;2023-04-15T10:09:33;1.90;;;1.80;;
2840;SDS011;53423;49.224;12.074;2023-04-15T10:12:02;1.87;;;1.77;;
2840;SDS011;53423;49.224;12.074;2023-04-15T10:14:32;1.83;;;1.73;;
2840;SDS011;53423;49.224;12.074;2023-04-15T10:17:04;2.27;;;2.10;;
2840;SDS011;53423;49.224;12.074;2023-04-15T10:19:36;1.50;;;1.40;;
2840;SDS011;53423;49.224;12.074;2023-04-15T10:22:04;1.27;;;1.27;;
2840;SDS011;53423;49.224;12.074;2023-04-15T10:24:34;1.33;;;1.23;;
2840;SDS011;53423;49.224;12.074;2023-04-15T10:27:03;1.47;;;1.37;;
2840;SDS011;53423;49.224;12.074;2023-04-15T10:29:32;1.60;;;1.50;;
2840;SDS011;53423;49.224;12.074;2023-04-15T10:32:00;1.60;;;1.50;;
2840;SDS011;53423;49.224;12.074;2023-04-15T10:34:30;1.30;;;1.30;;
2840;SDS011;53423;49.224;12.074;2023-04-15T10:37:00;1.67;;;1.57;;
2840;SDS011;53423;49.224;12.074;2023-04-15T10:39:41;1.40;;;1.33;;
2840;SDS011;53423;49.224;12.074;2023-04-15T10:42:10;1.03;;;1.03;;
2840;SDS011;53423;49.224;12.074;2023-04-15T10:44:41;1.20;;;1.20;;
2840;SDS011;53423;49.224;12.074;2023-04-15T10:47:10;1.23;;;1.23;;
2840;SDS011;53423;49.224;12.074;2023-04-15T10:49:43;1.10;;;1.10;;
2840;SDS011;53423;49.224;12.074;2023-04-15T10:52:13;1.33;;;1.20;;
2840;SDS011;53423;49.224;12.074;2023-04-15T10:54:43;1.00;;;1.00;;
2840;SDS011;53423;49.224;12.074;2023-04-15T10:57:15;1.03;;;1.03;;
2840;SDS011;53423;49.224;12.074;2023-04-15T10:59:58;1.10;;;0.93;;
2840;SDS011;53423;49.224;12.074;2023-04-15T11:02:38;1.10;;;1.00;;
2840;SDS011;53423;49.224;12.074;2023-04-15T11:05:08;1.00;;;1.00;;
2840;SDS011;53423;49.224;12.074;2023-04-15T11:07:38;1.53;;;1.00;;
2840;SDS011;53423;49.224;12.074;2023-04-15T11:13:27;2.07;;;1.90;;
2840;SDS011;53423;49.224;12.074;2023-04-15T11:16:00;1.20;;;1.20;;
2840;SDS011;53423;49.224;12.074;2023-04-15T11:18:29;1.30;;;1.20;;
2840;SDS011;53423;49.224;12.074;2023-04-15T11:21:00;1.00;;;0.90;;
2840;SDS011;53423;49.224;12.074;2023-04-15T11:23:31;2.10;;;1.00;;
2840;SDS011;53423;49.224;12.074;2023-04-15T11:26:00;1.37;;;0.90;;
2840;SDS011;53423;49.224;12.074;2023-04-15T11:28:35;0.90;;;0.90;;
2840;SDS011;53423;49.224;12.074;2023-04-15T11:31:05;0.90;;;0.90;;
2840;SDS011;53423;49.224;12.074;2023-04-15T11:33:38;0.90;;;0.90;;
2840;SDS011;53423;49.224;12.074;2023-04-15T11:36:12;1.30;;;1.20;;
2840;SDS011;53423;49.224;12.074;2023-04-15T11:38:43;1.33;;;1.13;;
2840;SDS011;53423;49.224;12.074;2023-04-15T11:41:13;1.60;;;1.37;;
2840;SDS011;53423;49.224;12.074;2023-04-15T11:43:43;1.57;;;1.53;;
2840;SDS011;53423;49.224;12.074;2023-04-15T11:46:11;1.10;;;1.10;;
2840;SDS011;53423;49.224;12.074;2023-04-15T11:48:41;1.00;;;1.00;;
2840;SDS011;53423;49.224;12.074;2023-04-15T11:51:10;2.53;;;2.33;;
2840;SDS011;53423;49.224;12.074;2023-04-15T11:53:40;1.93;;;1.83;;
2840;SDS011;53423;49.224;12.074;2023-04-15T11:56:15;1.77;;;1.67;;
2840;SDS011;53423;49.224;12.074;2023-04-15T11:58:46;1.40;;;1.30;;
2840;SDS011;53423;49.224;12.074;2023-04-15T12:01:16;1.60;;;1.50;;
2840;SDS011;53423;49.224;12.074;2023-04-15T12:03:44;1.17;;;1.17;;
2840;SDS011;53423;49.224;12.074;2023-04-15T12:06:15;1.47;;;1.37;;
2840;SDS011;53423;49.224;12.074;2023-04-15T12:11:35;1.97;;;1.87;;
2840;SDS011;53423;49.224;12.074;2023-04-15T12:14:09;1.70;;;1.60;;
2840;SDS011;53423;49.224;12.074;2023-04-15T12:16:40;1.30;;;1.30;;
2840;SDS011;53423;49.224;12.074;2023-04-15T12:19:15;1.67;;;1.57;;
2840;SDS011;53423;49.224;12.074;2023-04-15T12:21:45;1.40;;;1.30;;
2840;SDS011;53423;49.224;12.074;2023-04-15T12:24:14;2.10;;;2.00;;
2840;SDS011;53423;49.224;12.074;2023-04-15T12:26:42;1.70;;;1.60;;
2840;SDS011;53423;49.224;12.074;2023-04-15T12:29:13;1.20;;;1.10;;
2840;SDS011;53423;49.224;12.074;2023-04-15T12:31:46;2.70;;;2.50;;
2840;SDS011;53423;49.224;12.074;2023-04-15T12:34:18;2.17;;;2.07;;
2840;SDS011;53423;49.224;12.074;2023-04-15T12:36:53;2.10;;;2.00;;
2840;SDS011;53423;49.224;12.074;2023-04-15T12:39:22;1.80;;;1.70;;
2840;SDS011;53423;49.224;12.074;2023-04-15T12:41:50;1.50;;;1.40;;
2840;SDS011;53423;49.224;12.074;2023-04-15T12:44:21;1.77;;;1.67;;
2840;SDS011;53423;49.224;12.074;2023-04-15T12:46:50;1.90;;;1.80;;
2840;SDS011;53423;49.224;12.074;2023-04-15T12:49:19;1.50;;;1.40;;
2840;SDS011;53423;49.224;12.074;2023-04-15T12:51:47;2.07;;;1.40;;
2840;SDS011;53423;49.224;12.074;2023-04-15T12:54:15;1.87;;;1.77;;
2840;SDS011;53423;49.224;12.074;2023-04-15T12:56:44;1.60;;;1.50;;
2840;SDS011;53423;49.224;12.074;2023-04-15T12:59:12;1.63;;;1.53;;
2840;SDS011;53423;49.224;12.074;2023-04-15T13:01:42;1.70;;;1.43;;
2840;SDS011;53423;49.224;12.074;2023-04-15T13:04:10;1.70;;;1.60;;
2840;SDS011;53423;49.224;12.074;2023-04-15T13:06:39;1.93;;;1.83;;
2840;SDS011;53423;49.224;12.074;2023-04-15T13:09:09;1.73;;;1.63;;
2840;SDS011;53423;49.224;12.074;2023-04-15T13:11:37;1.83;;;1.73;;
2840;SDS011;53423;49.224;12.074;2023-04-15T13:14:06;2.23;;;2.10;;
2840;SDS011;53423;49.224;12.074;2023-04-15T13:16:36;2.43;;;2.00;;
2840;SDS011;53423;49.224;12.074;2023-04-15T13:19:06;2.33;;;1.90;;
2840;SDS011;53423;49.224;12.074;2023-04-15T13:21:34;2.73;;;2.53;;
2840;SDS011;53423;49.224;12.074;2023-04-15T13:24:02;2.30;;;2.10;;
2840;SDS011;53423;49.224;12.074;2023-04-15T13:26:32;2.50;;;2.30;;
2840;SDS011;53423;49.224;12.074;2023-04-15T13:29:00;2.30;;;2.10;;
2840;SDS011;53423;49.224;12.074;2023-04-15T13:31:28;2.20;;;2.10;;
2840;SDS011;53423;49.224;12.074;2023-04-15T13:33:56;2.57;;;2.40;;
2840;SDS011;53423;49.224;12.074;2023-04-15T13:36:27;2.37;;;2.20;;
2840;SDS011;53423;49.224;12.074;2023-04-15T13:38:55;2.20;;;2.10;;
2840;SDS011;53423;49.224;12.074;2023-04-15T13:41:25;2.70;;;2.50;;
2840;SDS011;53423;49.224;12.074;2023-04-15T13:43:53;3.07;;;2.87;;
2840;SDS011;53423;49.224;12.074;2023-04-15T13:46:20;2.60;;;2.40;;
2840;SDS011;53423;49.224;12.074;2023-04-15T13:48:48;2.90;;;2.60;;
2840;SDS011;53423;49.224;12.074;2023-04-15T13:51:16;2.87;;;2.67;;
2840;SDS011;53423;49.224;12.074;2023-04-15T13:53:45;2.80;;;2.60;;
2840;SDS011;53423;49.224;12.074;2023-04-15T13:56:16;2.73;;;2.53;;
2840;SDS011;53423;49.224;12.074;2023-04-15T13:58:44;2.50;;;2.40;;
2840;SDS011;53423;49.224;12.074;2023-04-15T14:01:12;2.90;;;2.70;;
2840;SDS011;53423;49.224;12.074;2023-04-15T14:03:40;4.40;;;4.00;;
2840;SDS011;53423;49.224;12.074;2023-04-15T14:06:08;3.33;;;3.13;;
2840;SDS011;53423;49.224;12.074;2023-04-15T14:08:36;3.10;;;2.90;;
2840;SDS011;53423;49.224;12.074;2023-04-15T14:11:05;3.10;;;2.90;;
2840;SDS011;53423;49.224;12.074;2023-04-15T14:13:33;4.23;;;2.40;;
2840;SDS011;53423;49.224;12.074;2023-04-15T14:16:01;3.00;;;2.80;;
2840;SDS011;53423;49.224;12.074;2023-04-15T14:18:29;3.20;;;3.00;;
2840;SDS011;53423;49.224;12.074;2023-04-15T14:20:57;2.97;;;2.77;;
2840;SDS011;53423;49.224;12.074;2023-04-15T14:23:25;3.27;;;3.07;;
2840;SDS011;53423;49.224;12.074;2023-04-15T14:25:53;3.00;;;2.70;;
2840;SDS011;53423;49.224;12.074;2023-04-15T14:28:22;2.63;;;2.43;;
2840;SDS011;53423;49.224;12.074;2023-04-15T14:30:51;2.50;;;2.30;;
2840;SDS011;53423;49.224;12.074;2023-04-15T14:33:18;2.90;;;2.70;;
2840;SDS011;53423;49.224;12.074;2023-04-15T14:35:46;2.40;;;2.20;;
2840;SDS011;53423;49.224;12.074;2023-04-15T14:38:15;2.87;;;2.63;;
2840;SDS011;53423;49.224;12.074;2023-04-15T14:40:43;2.70;;;2.50;;
2840;SDS011;53423;49.224;12.074;2023-04-15T14:43:11;2.77;;;2.57;;
2840;SDS011;53423;49.224;12.074;2023-04-15T14:45:40;3.37;;;2.67;;
2840;SDS011;53423;49.224;12.074;2023-04-15T14:48:10;2.57;;;2.37;;
2840;SDS011;53423;49.224;12.074;2023-04-15T14:50:38;2.67;;;2.47;;
2840;SDS011;53423;49.224;12.074;2023-04-15T14:53:06;2.53;;;2.30;;
2840;SDS011;53423;49.224;12.074;2023-04-15T14:55:34;2.57;;;2.37;;
2840;SDS011;53423;49.224;12.074;2023-04-15T14:58:02;2.90;;;2.70;;
2840;SDS011;53423;49.224;12.074;2023-04-15T15:00:32;2.70;;;2.50;;
2840;SDS011;53423;49.224;12.074;2023-04-15T15:03:02;3.20;;;2.90;;
2840;SDS011;53423;49.224;12.074;2023-04-15T15:05:31;3.00;;;2.80;;